Time;durP1;ratioP1;P1;durP2;ratioP2;P2;SDS_P1;SDS_P2;PMS_P1;PMS_P2;Temp;Humidity;BMP_temperature;BMP_pressure;BME280_temperature;BME280_humidity;BME280_pressure;Samples;Min_cycle;Max_cycle;Signal;HPM_P1;HPM_P2
2022/02/27 00:02:17;;;;;;;7.15;5.55;;;;;;;;;;5019791;28;20034;-90
2022/02/27 00:04:43;;;;;;;7.72;5.43;;;;;;;;;;5019865;28;20026;-90
2022/02/27 00:07:09;;;;;;;6.57;5.47;;;;;;;;;;5019953;28;20018;-89
2022/02/27 00:09:35;;;;;;;7.95;6.10;;;;;;;;;;5019385;28;20029;-89
2022/02/27 00:12:01;;;;;;;7.72;5.95;;;;;;;;;;5019583;28;20164;-89
2022/02/27 00:14:27;;;;;;;7.30;5.85;;;;;;;;;;5019519;28;20042;-89
2022/02/27 00:16:53;;;;;;;8.45;5.95;;;;;;;;;;5019639;28;20049;-89
2022/02/27 00:19:21;;;;;;;8.07;6.38;;;;;;;;;;5019491;28;20041;-89
2022/02/27 00:21:47;;;;;;;9.55;6.28;;;;;;;;;;5019417;28;20049;-90
2022/02/27 00:24:14;;;;;;;8.75;6.38;;;;;;;;;;5019675;28;20121;-90
2022/02/27 00:26:40;;;;;;;9.82;6.47;;;;;;;;;;5019636;28;20026;-91
2022/02/27 00:29:06;;;;;;;8.40;6.65;;;;;;;;;;5019577;28;20025;-90
2022/02/27 00:31:33;;;;;;;9.50;7.32;;;;;;;;;;5019193;28;20033;-91
2022/02/27 00:33:59;;;;;;;8.45;6.07;;;;;;;;;;5019533;28;20514;-90
2022/02/27 00:36:25;;;;;;;10.63;7.35;;;;;;;;;;5019553;28;20053;-91
2022/02/27 00:38:51;;;;;;;10.32;6.97;;;;;;;;;;5019177;28;20076;-90
2022/02/27 00:41:17;;;;;;;8.43;7.07;;;;;;;;;;5018461;28;20045;-91
2022/02/27 00:43:43;;;;;;;9.95;7.47;;;;;;;;;;5018006;28;20057;-91
2022/02/27 00:46:09;;;;;;;9.30;6.75;;;;;;;;;;5018953;28;20455;-92
2022/02/27 00:48:36;;;;;;;9.32;7.03;;;;;;;;;;5019051;28;20089;-92
2022/02/27 00:51:02;;;;;;;10.70;6.82;;;;;;;;;;5018057;28;20022;-91
2022/02/27 00:53:28;;;;;;;9.93;7.85;;;;;;;;;;5018813;28;20018;-92
2022/02/27 00:59:12;;;;;;;10.68;7.38;;;;;;;;;;5019003;28;20328;-92
2022/02/27 01:01:38;;;;;;;9.95;7.80;;;;;;;;;;5018988;28;20038;-91
2022/02/27 01:04:04;;;;;;;8.35;7.10;;;;;;;;;;5018944;28;20038;-91
2022/02/27 01:06:30;;;;;;;10.65;7.40;;;;;;;;;;5018627;28;20018;-90
2022/02/27 01:08:58;;;;;;;9.25;7.30;;;;;;;;;;5018571;28;20022;-89
2022/02/27 01:11:25;;;;;;;11.15;7.53;;;;;;;;;;5018327;28;20108;-89
2022/02/27 01:13:51;;;;;;;10.85;7.50;;;;;;;;;;5018125;28;20057;-88
2022/02/27 01:16:17;;;;;;;10.07;7.72;;;;;;;;;;5018808;28;20137;-90
2022/02/27 01:18:43;;;;;;;10.23;7.43;;;;;;;;;;5018634;28;20034;-90
2022/02/27 01:21:09;;;;;;;11.38;8.00;;;;;;;;;;5018678;28;20029;-90
2022/02/27 01:23:35;;;;;;;10.00;7.68;;;;;;;;;;5018207;28;20022;-91
2022/02/27 01:26:02;;;;;;;10.70;8.63;;;;;;;;;;5018605;28;20084;-90
2022/02/27 01:28:28;;;;;;;9.13;7.63;;;;;;;;;;5017394;28;20385;-90
2022/02/27 01:30:54;;;;;;;10.30;7.85;;;;;;;;;;5018489;28;20025;-91
2022/02/27 01:33:20;;;;;;;8.77;7.45;;;;;;;;;;5018426;28;20032;-90
2022/02/27 01:35:46;;;;;;;9.18;7.00;;;;;;;;;;5018512;28;20100;-89
2022/02/27 01:38:12;;;;;;;9.00;7.45;;;;;;;;;;5018698;28;20427;-90
2022/02/27 01:40:38;;;;;;;9.40;8.05;;;;;;;;;;5018266;28;20359;-90
2022/02/27 01:49:11;;;;;;;9.32;7.22;;;;;;;;;;5017964;28;20328;-90
2022/02/27 01:51:37;;;;;;;10.05;7.72;;;;;;;;;;5018179;28;20316;-90
2022/02/27 01:54:03;;;;;;;10.55;7.93;;;;;;;;;;5017072;28;20040;-90
2022/02/27 01:57:06;;;;;;;11.88;8.65;;;;;;;;;;5017129;28;20116;-90
2022/02/27 01:59:32;;;;;;;;;;;;;;;;;;5018398;28;20408;-90
2022/02/27 02:01:59;;;;;;;10.88;8.68;;;;;;;;;;5017654;28;19911;-90
2022/02/27 02:04:25;;;;;;;12.48;9.25;;;;;;;;;;5017787;28;20076;-91
2022/02/27 02:06:51;;;;;;;10.85;9.13;;;;;;;;;;5018527;28;20018;-90
2022/02/27 02:09:17;;;;;;;10.98;9.02;;;;;;;;;;5018078;28;20021;-91
2022/02/27 02:11:43;;;;;;;11.18;9.15;;;;;;;;;;5017708;28;20026;-90
2022/02/27 02:14:10;;;;;;;12.00;9.18;;;;;;;;;;5016602;28;20049;-91
2022/02/27 02:16:44;;;;;;;11.32;8.88;;;;;;;;;;5018160;28;20030;-91
2022/02/27 02:19:10;;;;;;;11.60;9.38;;;;;;;;;;5016878;28;20332;-92
2022/02/27 02:21:38;;;;;;;10.93;8.82;;;;;;;;;;5017124;28;20372;-90
2022/02/27 02:24:04;;;;;;;12.20;9.77;;;;;;;;;;5017963;28;20033;-92
2022/02/27 02:26:30;;;;;;;12.40;10.13;;;;;;;;;;5019422;28;20034;-93
2022/02/27 02:28:56;;;;;;;13.52;10.07;;;;;;;;;;5021616;28;20022;-92
2022/02/27 02:31:23;;;;;;;14.07;10.68;;;;;;;;;;5021599;28;20064;-90
2022/02/27 02:33:49;;;;;;;11.32;9.23;;;;;;;;;;5021827;28;20022;-91
2022/02/27 02:36:15;;;;;;;11.70;10.45;;;;;;;;;;5021813;28;20034;-92
2022/02/27 02:38:41;;;;;;;12.93;9.88;;;;;;;;;;5021905;28;20026;-91
2022/02/27 02:41:07;;;;;;;15.77;10.20;;;;;;;;;;5021519;28;20064;-92
2022/02/27 02:47:13;;;;;;;11.85;10.10;;;;;;;;;;5021614;28;20024;-90
2022/02/27 02:49:39;;;;;;;12.52;10.35;;;;;;;;;;5020229;28;20053;-90
2022/02/27 02:52:06;;;;;;;12.85;10.65;;;;;;;;;;5021081;28;20149;-89
2022/02/27 02:54:32;;;;;;;13.48;10.30;;;;;;;;;;5021088;28;20042;-90
2022/02/27 02:56:58;;;;;;;11.65;9.93;;;;;;;;;;5021130;28;20037;-90
2022/02/27 02:59:24;;;;;;;12.43;9.52;;;;;;;;;;5020426;28;20065;-90
2022/02/27 03:01:50;;;;;;;13.55;10.00;;;;;;;;;;5020999;28;20026;-90
2022/02/27 03:04:16;;;;;;;15.30;10.25;;;;;;;;;;5021282;28;20022;-91
2022/02/27 03:06:43;;;;;;;14.65;10.60;;;;;;;;;;5020300;28;20029;-89
2022/02/27 03:09:09;;;;;;;18.45;11.15;;;;;;;;;;5020034;28;20060;-90
2022/02/27 03:14:38;;;;;;;12.27;9.93;;;;;;;;;;5007610;28;20040;-90
2022/02/27 03:17:05;;;;;;;14.23;10.00;;;;;;;;;;5020839;28;20038;-91
2022/02/27 03:19:31;;;;;;;13.98;9.88;;;;;;;;;;5020930;28;20022;-91
2022/02/27 03:21:57;;;;;;;12.00;9.18;;;;;;;;;;5019894;28;20022;-91
2022/02/27 03:24:23;;;;;;;12.77;9.50;;;;;;;;;;5020482;28;20435;-91
2022/02/27 03:27:07;;;;;;;13.23;9.63;;;;;;;;;;5020704;28;20017;-92
2022/02/27 03:29:34;;;;;;;13.68;9.65;;;;;;;;;;5019468;28;20072;-89
2022/02/27 03:32:00;;;;;;;11.82;9.27;;;;;;;;;;5019541;28;20044;-90
2022/02/27 03:34:27;;;;;;;14.07;10.80;;;;;;;;;;5020365;28;20022;-90
2022/02/27 03:36:53;;;;;;;11.50;8.95;;;;;;;;;;5020196;28;20116;-91
2022/02/27 03:39:19;;;;;;;12.23;9.77;;;;;;;;;;5020621;28;20033;-92
2022/02/27 03:47:54;;;;;;;13.45;9.13;;;;;;;;;;5020572;28;20079;-91
2022/02/27 03:50:21;;;;;;;12.38;9.35;;;;;;;;;;5020341;28;20030;-92
2022/02/27 03:52:47;;;;;;;13.80;10.07;;;;;;;;;;5019135;28;20068;-90
2022/02/27 03:55:14;;;;;;;12.63;9.82;;;;;;;;;;5020372;28;20029;-90
2022/02/27 03:57:40;;;;;;;15.13;9.52;;;;;;;;;;5020295;28;20101;-90
2022/02/27 04:00:08;;;;;;;14.77;10.32;;;;;;;;;;5020368;28;20030;-89
2022/02/27 04:02:34;;;;;;;13.70;9.38;;;;;;;;;;5019804;28;20050;-90
2022/02/27 04:05:00;;;;;;;14.55;9.93;;;;;;;;;;5019260;28;20031;-90
2022/02/27 04:07:26;;;;;;;14.55;9.73;;;;;;;;;;5019671;28;20026;-91
2022/02/27 04:09:52;;;;;;;13.82;9.93;;;;;;;;;;5018763;28;20026;-89
2022/02/27 04:12:18;;;;;;;18.42;12.55;;;;;;;;;;5019918;28;20022;-91
2022/02/27 04:14:44;;;;;;;15.02;11.18;;;;;;;;;;5019318;28;20049;-90
2022/02/27 04:17:10;;;;;;;13.77;9.60;;;;;;;;;;5019430;28;20112;-91
2022/02/27 04:19:36;;;;;;;12.20;9.90;;;;;;;;;;5019664;28;20029;-90
2022/02/27 04:22:03;;;;;;;14.15;10.85;;;;;;;;;;5019895;28;20026;-92
2022/02/27 04:24:29;;;;;;;15.82;11.05;;;;;;;;;;5019716;28;20034;-90
2022/02/27 04:26:55;;;;;;;16.50;10.82;;;;;;;;;;5019292;28;20030;-90
2022/02/27 04:29:21;;;;;;;21.20;14.60;;;;;;;;;;5019438;28;20029;-90
2022/02/27 04:31:47;;;;;;;34.38;15.38;;;;;;;;;;5019593;28;20042;-91
2022/02/27 04:34:13;;;;;;;38.00;15.57;;;;;;;;;;5019621;28;20325;-92
2022/02/27 04:36:39;;;;;;;23.98;12.95;;;;;;;;;;5019410;28;20026;-91
2022/02/27 04:39:06;;;;;;;13.88;10.02;;;;;;;;;;5019464;28;20393;-90
2022/02/27 04:41:32;;;;;;;14.88;10.82;;;;;;;;;;5019487;28;20022;-91
2022/02/27 04:47:39;;;;;;;12.82;9.77;;;;;;;;;;5019159;28;20064;-89
2022/02/27 04:50:05;;;;;;;13.82;9.40;;;;;;;;;;5017054;28;20030;-90
2022/02/27 04:52:31;;;;;;;13.55;10.38;;;;;;;;;;5019229;28;20405;-90
2022/02/27 04:54:57;;;;;;;13.90;10.25;;;;;;;;;;5018893;28;20021;-90
2022/02/27 04:57:23;;;;;;;12.02;9.98;;;;;;;;;;5018962;28;20419;-90
2022/02/27 04:59:49;;;;;;;14.32;10.45;;;;;;;;;;5017923;28;20121;-90
2022/02/27 05:02:15;;;;;;;15.02;10.65;;;;;;;;;;5019200;28;20033;-91
2022/02/27 05:04:41;;;;;;;16.20;10.95;;;;;;;;;;5018669;28;20025;-89
2022/02/27 05:07:07;;;;;;;12.77;9.55;;;;;;;;;;5018062;28;20070;-90
2022/02/27 05:09:33;;;;;;;14.43;10.02;;;;;;;;;;5018991;28;20022;-90
2022/02/27 05:12:00;;;;;;;14.25;9.68;;;;;;;;;;5017823;28;20053;-89
2022/02/27 05:14:26;;;;;;;15.30;10.43;;;;;;;;;;5018553;28;20069;-89
2022/02/27 05:16:52;;;;;;;19.67;10.95;;;;;;;;;;5018969;28;20030;-90
2022/02/27 05:19:18;;;;;;;23.13;13.38;;;;;;;;;;5018530;28;20069;-89
2022/02/27 05:21:44;;;;;;;14.30;10.45;;;;;;;;;;5018536;28;20476;-90
2022/02/27 05:24:10;;;;;;;15.70;10.20;;;;;;;;;;5018038;28;20034;-89
2022/02/27 05:26:36;;;;;;;14.07;10.23;;;;;;;;;;5018657;28;20022;-89
2022/02/27 05:29:04;;;;;;;17.55;10.50;;;;;;;;;;5018270;28;20033;-90
2022/02/27 05:31:30;;;;;;;14.98;10.70;;;;;;;;;;5018680;28;20022;-89
2022/02/27 05:33:56;;;;;;;13.20;10.10;;;;;;;;;;5018551;28;20067;-90
2022/02/27 05:36:22;;;;;;;13.68;9.63;;;;;;;;;;5018427;28;20095;-89
2022/02/27 05:38:48;;;;;;;15.45;10.40;;;;;;;;;;5018528;28;20022;-90
2022/02/27 05:41:14;;;;;;;15.88;10.77;;;;;;;;;;5018323;28;20029;-90
2022/02/27 05:43:41;;;;;;;15.25;10.48;;;;;;;;;;5018043;28;20041;-91
2022/02/27 05:46:09;;;;;;;14.90;10.23;;;;;;;;;;5017093;28;20033;-91
2022/02/27 05:48:35;;;;;;;13.15;8.50;;;;;;;;;;5018301;28;20041;-90
2022/02/27 05:51:01;;;;;;;14.70;9.85;;;;;;;;;;5018008;28;20025;-89
2022/02/27 05:53:27;;;;;;;15.30;10.60;;;;;;;;;;5018006;28;20033;-91
2022/02/27 05:55:56;;;;;;;14.90;10.57;;;;;;;;;;5017350;28;20034;-91
2022/02/27 05:58:26;;;;;;;16.88;11.30;;;;;;;;;;5017283;28;20034;-91
2022/02/27 06:00:52;;;;;;;15.75;11.10;;;;;;;;;;5017936;28;20029;-91
2022/02/27 06:03:19;;;;;;;15.25;10.65;;;;;;;;;;5016368;28;20428;-91
2022/02/27 06:05:45;;;;;;;14.70;10.18;;;;;;;;;;5018174;28;20030;-91
2022/02/27 06:08:11;;;;;;;15.18;10.60;;;;;;;;;;5017858;28;20462;-90
2022/02/27 06:10:38;;;;;;;15.80;10.70;;;;;;;;;;5017939;28;20033;-90
2022/02/27 06:13:04;;;;;;;17.33;11.85;;;;;;;;;;5017728;28;20018;-90
2022/02/27 06:15:30;;;;;;;18.35;12.93;;;;;;;;;;5017577;28;20050;-90
2022/02/27 06:17:56;;;;;;;21.00;12.27;;;;;;;;;;5017825;28;20034;-90
2022/02/27 06:20:22;;;;;;;17.98;11.23;;;;;;;;;;5017736;28;20022;-90
2022/02/27 06:22:49;;;;;;;14.85;10.52;;;;;;;;;;5017345;28;20026;-91
2022/02/27 06:25:16;;;;;;;15.75;10.15;;;;;;;;;;5017826;28;20048;-91
2022/02/27 06:27:43;;;;;;;24.27;15.15;;;;;;;;;;5017652;28;20381;-90
2022/02/27 06:30:10;;;;;;;21.58;14.75;;;;;;;;;;5017744;28;20080;-90
2022/02/27 06:32:36;;;;;;;41.30;19.90;;;;;;;;;;5017661;28;20033;-90
2022/02/27 06:35:02;;;;;;;47.13;22.63;;;;;;;;;;5017339;28;20325;-90
2022/02/27 06:37:28;;;;;;;47.83;19.55;;;;;;;;;;5023847;28;20032;-90
2022/02/27 06:39:54;;;;;;;33.20;14.93;;;;;;;;;;5036627;28;20030;-90
2022/02/27 06:42:21;;;;;;;31.30;13.73;;;;;;;;;;5037198;28;20025;-90
2022/02/27 06:44:47;;;;;;;29.50;13.88;;;;;;;;;;5035261;28;20029;-90
2022/02/27 06:47:13;;;;;;;52.50;19.33;;;;;;;;;;5018696;28;20095;-89
2022/02/27 06:49:39;;;;;;;36.28;15.48;;;;;;;;;;5017659;28;20034;-89
2022/02/27 06:52:05;;;;;;;33.10;14.65;;;;;;;;;;5017745;28;20030;-90
2022/02/27 06:54:31;;;;;;;43.40;17.27;;;;;;;;;;5017531;28;20030;-89
2022/02/27 06:56:57;;;;;;;22.58;12.65;;;;;;;;;;5016429;28;20033;-89
2022/02/27 06:59:24;;;;;;;22.40;12.32;;;;;;;;;;5017787;28;20022;-90
2022/02/27 07:01:50;;;;;;;18.95;11.70;;;;;;;;;;5034880;28;20400;-89
2022/02/27 07:04:16;;;;;;;17.52;10.75;;;;;;;;;;5029178;28;20455;-90
2022/02/27 07:06:42;;;;;;;31.70;13.45;;;;;;;;;;5017387;28;20441;-90
2022/02/27 07:09:08;;;;;;;44.40;17.38;;;;;;;;;;5017267;28;20324;-90
2022/02/27 07:11:34;;;;;;;20.98;13.50;;;;;;;;;;5017612;28;20029;-89
2022/02/27 07:14:19;;;;;;;22.83;15.20;;;;;;;;;;5017008;28;20050;-89
2022/02/27 07:16:45;;;;;;;35.55;20.25;;;;;;;;;;5020161;28;20049;-90
2022/02/27 07:19:11;;;;;;;45.92;21.15;;;;;;;;;;5029219;28;20029;-90
2022/02/27 07:21:37;;;;;;;55.20;21.05;;;;;;;;;;5040898;28;20120;-90
2022/02/27 07:24:04;;;;;;;67.68;27.50;;;;;;;;;;5040423;28;20034;-91
2022/02/27 07:26:30;;;;;;;44.95;21.20;;;;;;;;;;5038670;28;20025;-91
2022/02/27 07:28:56;;;;;;;31.85;17.45;;;;;;;;;;5040696;28;20021;-90
2022/02/27 07:31:22;;;;;;;20.70;14.30;;;;;;;;;;5040381;28;20021;-90
2022/02/27 07:33:49;;;;;;;31.70;16.48;;;;;;;;;;5039489;28;20289;-92
2022/02/27 07:36:15;;;;;;;40.83;16.27;;;;;;;;;;5040534;28;20026;-91
2022/02/27 07:38:41;;;;;;;40.50;17.20;;;;;;;;;;5040079;28;20025;-91
2022/02/27 07:41:07;;;;;;;28.73;15.15;;;;;;;;;;5035383;28;20034;-90
2022/02/27 07:43:33;;;;;;;28.95;16.10;;;;;;;;;;5034992;28;20113;-90
2022/02/27 07:45:59;;;;;;;43.63;19.40;;;;;;;;;;5020395;28;20344;-91
2022/02/27 07:48:28;;;;;;;34.13;17.88;;;;;;;;;;5019122;28;20047;-91
2022/02/27 07:50:54;;;;;;;42.58;16.13;;;;;;;;;;5020388;28;20018;-91
2022/02/27 07:53:20;;;;;;;32.97;17.10;;;;;;;;;;5020205;28;20177;-89
2022/02/27 07:55:47;;;;;;;31.50;14.75;;;;;;;;;;5020218;28;20313;-88
2022/02/27 07:58:38;;;;;;;29.70;14.48;;;;;;;;;;5019787;28;20040;-88
2022/02/27 08:01:04;;;;;;;24.33;13.60;;;;;;;;;;5020099;28;20029;-89
2022/02/27 08:03:30;;;;;;;21.40;15.05;;;;;;;;;;5020104;28;20022;-91
2022/02/27 08:05:56;;;;;;;24.52;15.63;;;;;;;;;;5020134;28;20109;-89
2022/02/27 08:08:22;;;;;;;24.65;16.25;;;;;;;;;;5020012;28;20018;-91
2022/02/27 08:10:49;;;;;;;23.55;14.60;;;;;;;;;;5019830;28;20133;-90
2022/02/27 08:13:15;;;;;;;30.45;18.58;;;;;;;;;;5018757;28;20048;-89
2022/02/27 08:15:41;;;;;;;32.30;18.52;;;;;;;;;;5019741;28;20058;-89
2022/02/27 08:18:07;;;;;;;27.83;16.70;;;;;;;;;;5019343;28;20360;-89
2022/02/27 08:20:35;;;;;;;27.08;17.15;;;;;;;;;;5019411;28;20032;-89
2022/02/27 08:23:01;;;;;;;30.27;16.10;;;;;;;;;;5019558;28;20026;-90
2022/02/27 08:25:27;;;;;;;29.60;15.25;;;;;;;;;;5019382;28;20033;-89
2022/02/27 08:27:53;;;;;;;34.35;16.35;;;;;;;;;;5018831;28;20428;-88
2022/02/27 08:30:19;;;;;;;26.92;14.60;;;;;;;;;;5019754;28;20030;-89
2022/02/27 08:32:50;;;;;;;16.98;12.35;;;;;;;;;;5019267;28;20045;-89
2022/02/27 08:35:16;;;;;;;21.10;13.18;;;;;;;;;;5019162;28;20026;-89
2022/02/27 08:37:42;;;;;;;21.40;13.68;;;;;;;;;;5018264;28;20030;-89
2022/02/27 08:40:08;;;;;;;27.90;15.50;;;;;;;;;;5019123;28;20026;-90
2022/02/27 08:42:34;;;;;;;21.77;13.48;;;;;;;;;;5002209;28;20038;-89
2022/02/27 08:45:00;;;;;;;24.88;13.55;;;;;;;;;;5019098;28;20018;-89
2022/02/27 08:47:26;;;;;;;24.95;15.88;;;;;;;;;;5018944;28;20026;-90
2022/02/27 08:49:52;;;;;;;25.13;15.35;;;;;;;;;;5018446;28;20436;-90
2022/02/27 08:52:19;;;;;;;22.60;13.75;;;;;;;;;;5019197;28;20030;-89
2022/02/27 08:54:48;;;;;;;20.95;13.77;;;;;;;;;;5019036;28;20041;-90
2022/02/27 08:57:14;;;;;;;21.52;14.40;;;;;;;;;;5018760;28;20108;-89
2022/02/27 08:59:40;;;;;;;20.73;14.38;;;;;;;;;;5018894;28;20036;-90
2022/02/27 09:02:07;;;;;;;24.42;14.70;;;;;;;;;;5018765;28;20026;-89
2022/02/27 09:04:33;;;;;;;29.33;16.95;;;;;;;;;;5018129;28;20034;-90
2022/02/27 09:06:59;;;;;;;26.35;16.58;;;;;;;;;;5018794;28;20026;-90
2022/02/27 09:09:25;;;;;;;23.83;15.90;;;;;;;;;;5018701;28;20112;-90
2022/02/27 09:11:52;;;;;;;27.00;17.10;;;;;;;;;;5018553;28;20033;-89
2022/02/27 09:14:18;;;;;;;28.40;15.98;;;;;;;;;;5018523;28;20109;-90
2022/02/27 09:16:44;;;;;;;23.02;13.07;;;;;;;;;;5017882;28;20042;-89
2022/02/27 09:19:10;;;;;;;18.73;12.93;;;;;;;;;;5017920;28;20025;-89
2022/02/27 09:21:36;;;;;;;20.98;12.88;;;;;;;;;;5018435;28;20033;-92
2022/02/27 09:24:03;;;;;;;35.67;16.77;;;;;;;;;;5018644;28;20336;-93
2022/02/27 09:26:29;;;;;;;19.35;11.75;;;;;;;;;;5018501;28;20308;-89
2022/02/27 09:28:55;;;;;;;19.83;12.07;;;;;;;;;;5018354;28;20202;-91
2022/02/27 09:31:21;;;;;;;20.65;12.20;;;;;;;;;;5018193;28;20026;-91
2022/02/27 09:33:47;;;;;;;20.60;12.55;;;;;;;;;;5018237;28;20029;-91
2022/02/27 09:36:13;;;;;;;19.50;12.73;;;;;;;;;;5017456;28;20112;-92
2022/02/27 09:38:39;;;;;;;23.17;14.85;;;;;;;;;;5018263;28;20022;-92
2022/02/27 09:53:10;;;;;;;32.53;20.58;;;;;;;;;;5177282;27;20357;-85
2022/02/27 09:55:37;;;;;;;26.25;18.33;;;;;;;;;;5177190;27;20027;-85
2022/02/27 09:58:04;;;;;;;25.35;16.60;;;;;;;;;;5177005;27;20039;-85
2022/02/27 10:00:30;;;;;;;38.00;20.73;;;;;;;;;;5157883;27;20339;-84
2022/02/27 10:03:15;;;;;;;27.80;16.00;;;;;;;;;;5177021;27;20018;-84
2022/02/27 10:05:45;;;;;;;37.35;17.65;;;;;;;;;;5176908;27;20038;-86
2022/02/27 10:08:12;;;;;;;28.15;15.43;;;;;;;;;;5175963;27;20018;-86
2022/02/27 10:10:40;;;;;;;39.65;19.15;;;;;;;;;;5168772;27;20029;-86
2022/02/27 10:13:06;;;;;;;26.77;14.02;;;;;;;;;;5167784;27;20082;-84
2022/02/27 10:15:33;;;;;;;24.20;13.55;;;;;;;;;;5176849;27;20025;-83
2022/02/27 10:17:59;;;;;;;21.63;14.18;;;;;;;;;;5157055;27;20316;-83
2022/02/27 10:20:26;;;;;;;23.08;12.48;;;;;;;;;;5155715;27;20035;-84
2022/02/27 10:22:53;;;;;;;29.52;14.48;;;;;;;;;;5155762;27;20019;-84
2022/02/27 10:25:24;;;;;;;18.65;12.38;;;;;;;;;;5155519;27;20542;-84
2022/02/27 10:27:52;;;;;;;17.27;12.32;;;;;;;;;;5137237;27;20027;-84
2022/02/27 10:30:25;;;;;;;20.88;12.75;;;;;;;;;;5155588;27;20044;-84
2022/02/27 10:32:57;;;;;;;38.20;18.42;;;;;;;;;;5143981;27;20038;-84
2022/02/27 10:35:35;;;;;;;25.02;14.13;;;;;;;;;;5157891;27;20027;-84
2022/02/27 10:38:02;;;;;;;28.45;14.25;;;;;;;;;;5176259;27;20106;-84
2022/02/27 10:40:31;;;;;;;24.67;13.90;;;;;;;;;;5176137;27;20030;-84
2022/02/27 10:42:59;;;;;;;24.73;13.40;;;;;;;;;;5175577;27;20029;-84
2022/02/27 10:45:26;;;;;;;18.60;11.95;;;;;;;;;;5176213;27;20034;-84
2022/02/27 10:48:01;;;;;;;22.63;12.82;;;;;;;;;;5176032;27;20018;-84
2022/02/27 10:50:28;;;;;;;18.35;12.57;;;;;;;;;;5161580;27;20094;-84
2022/02/27 10:52:54;;;;;;;26.52;14.88;;;;;;;;;;5147794;27;20043;-85
2022/02/27 10:55:20;;;;;;;18.73;11.02;;;;;;;;;;5126787;27;20401;-84
2022/02/27 10:57:49;;;;;;;16.48;10.80;;;;;;;;;;5130929;27;20019;-84
2022/02/27 11:00:28;;;;;;;18.27;11.10;;;;;;;;;;5120888;27;20028;-84
2022/02/27 11:02:55;;;;;;;16.17;11.55;;;;;;;;;;5102238;28;20416;-84
2022/02/27 11:05:23;;;;;;;17.70;11.57;;;;;;;;;;5133396;27;20024;-83
2022/02/27 11:07:50;;;;;;;13.50;10.23;;;;;;;;;;5131107;27;20358;-83
2022/02/27 11:10:18;;;;;;;15.48;10.98;;;;;;;;;;5141215;27;20098;-85
2022/02/27 11:12:44;;;;;;;12.73;9.85;;;;;;;;;;5140744;27;20054;-84
2022/02/27 11:15:11;;;;;;;14.38;10.23;;;;;;;;;;5140488;27;20075;-83
2022/02/27 11:17:38;;;;;;;17.05;10.98;;;;;;;;;;5140490;27;20056;-83
2022/02/27 11:20:06;;;;;;;16.23;11.55;;;;;;;;;;5140935;27;20030;-84
2022/02/27 11:22:33;;;;;;;17.73;11.07;;;;;;;;;;5140783;27;20035;-84
2022/02/27 11:25:00;;;;;;;16.85;11.90;;;;;;;;;;5122458;27;20370;-84
2022/02/27 11:27:29;;;;;;;14.07;9.43;;;;;;;;;;5140447;27;20311;-84
2022/02/27 11:29:56;;;;;;;13.73;9.48;;;;;;;;;;5140482;27;20030;-84
2022/02/27 11:32:23;;;;;;;15.43;10.52;;;;;;;;;;5121816;27;20095;-84
2022/02/27 11:34:49;;;;;;;14.30;10.23;;;;;;;;;;5140452;27;20031;-84
2022/02/27 11:37:15;;;;;;;17.85;11.20;;;;;;;;;;5122170;27;20048;-83
2022/02/27 11:42:44;;;;;;;12.40;8.90;;;;;;;;;;5140140;27;20362;-84
2022/02/27 11:45:10;;;;;;;14.30;10.27;;;;;;;;;;5140303;27;20020;-84
2022/02/27 11:47:49;;;;;;;14.32;9.35;;;;;;;;;;5140394;27;20019;-84
2022/02/27 11:50:23;;;;;;;16.92;10.23;;;;;;;;;;5138392;27;20342;-83
2022/02/27 11:52:49;;;;;;;14.57;10.80;;;;;;;;;;5123384;27;20130;-82
2022/02/27 11:55:35;;;;;;;13.30;9.23;;;;;;;;;;5139431;27;20023;-82
2022/02/27 11:58:01;;;;;;;13.25;10.02;;;;;;;;;;5139328;27;20023;-81
2022/02/27 12:00:48;;;;;;;13.82;9.63;;;;;;;;;;5139623;27;20102;-82
2022/02/27 12:03:32;;;;;;;15.00;9.40;;;;;;;;;;5139664;27;20046;-82
2022/02/27 12:06:05;;;;;;;14.23;8.85;;;;;;;;;;5138594;27;20023;-82
2022/02/27 12:08:44;;;;;;;14.57;9.70;;;;;;;;;;5139656;27;20303;-82
2022/02/27 12:11:26;;;;;;;16.42;10.25;;;;;;;;;;5127864;27;20027;-82
2022/02/27 12:13:56;;;;;;;10.65;7.63;;;;;;;;;;5113941;27;20027;-82
2022/02/27 12:16:42;;;;;;;14.55;8.90;;;;;;;;;;5127879;27;20465;-82
2022/02/27 12:19:24;;;;;;;14.10;10.07;;;;;;;;;;5120761;27;20027;-83
2022/02/27 12:21:50;;;;;;;;;;;;;;;;;;5138729;27;20771;-82
2022/02/27 12:24:22;;;;;;;13.23;8.93;;;;;;;;;;5132190;27;19908;-83
2022/02/27 12:26:50;;;;;;;12.02;8.75;;;;;;;;;;5132926;27;20026;-82
2022/02/27 12:29:23;;;;;;;16.88;10.23;;;;;;;;;;5138765;27;20031;-82
2022/02/27 12:31:49;;;;;;;15.63;9.90;;;;;;;;;;5120579;27;20093;-82
2022/02/27 12:34:19;;;;;;;11.93;8.23;;;;;;;;;;5138146;27;20072;-82
2022/02/27 12:36:59;;;;;;;16.08;9.82;;;;;;;;;;5138935;27;20027;-82
2022/02/27 12:39:25;;;;;;;16.63;9.93;;;;;;;;;;5120622;27;20316;-82
2022/02/27 12:41:53;;;;;;;13.43;8.45;;;;;;;;;;5138334;27;20031;-82
2022/02/27 12:44:24;;;;;;;11.90;9.43;;;;;;;;;;5139039;27;20058;-82
2022/02/27 12:46:50;;;;;;;13.25;8.13;;;;;;;;;;5138852;27;20023;-82
2022/02/27 12:52:01;;;;;;;21.25;12.35;;;;;;;;;;5138426;27;20057;-82
2022/02/27 12:54:34;;;;;;;18.13;11.82;;;;;;;;;;5138441;27;20090;-82
2022/02/27 12:57:01;;;;;;;15.35;10.73;;;;;;;;;;5138032;27;20051;-82
2022/02/27 12:59:28;;;;;;;12.52;8.43;;;;;;;;;;5137656;27;20023;-81
2022/02/27 13:01:54;;;;;;;16.33;11.07;;;;;;;;;;5122234;27;20032;-84
2022/02/27 13:04:20;;;;;;;14.23;9.65;;;;;;;;;;5117975;28;20019;-82
2022/02/27 13:06:59;;;;;;;15.98;10.82;;;;;;;;;;5118061;28;20094;-82
2022/02/27 13:09:25;;;;;;;12.15;9.13;;;;;;;;;;5099505;28;20019;-82
2022/02/27 13:11:53;;;;;;;13.85;8.38;;;;;;;;;;5099684;28;20031;-82
2022/02/27 13:14:21;;;;;;;14.02;9.40;;;;;;;;;;5117554;28;20098;-82
2022/02/27 13:16:51;;;;;;;11.05;8.38;;;;;;;;;;5098987;28;20139;-82
2022/02/27 13:19:29;;;;;;;12.07;8.20;;;;;;;;;;5099288;28;20039;-82
2022/02/27 13:21:55;;;;;;;11.65;7.93;;;;;;;;;;5122129;27;20031;-82
2022/02/27 13:24:30;;;;;;;17.00;9.35;;;;;;;;;;5137969;27;20023;-82
2022/02/27 13:26:57;;;;;;;13.07;9.43;;;;;;;;;;5137975;27;20015;-82
2022/02/27 13:29:23;;;;;;;12.60;8.57;;;;;;;;;;5138112;27;20015;-82
2022/02/27 13:31:49;;;;;;;9.32;6.97;;;;;;;;;;5137500;27;20031;-82
2022/02/27 13:34:15;;;;;;;11.50;7.68;;;;;;;;;;5137882;27;20030;-81
2022/02/27 13:36:42;;;;;;;11.82;7.47;;;;;;;;;;5137971;27;20031;-82
2022/02/27 13:39:09;;;;;;;12.70;8.30;;;;;;;;;;5138281;27;20304;-81
2022/02/27 13:41:39;;;;;;;13.35;9.07;;;;;;;;;;5137734;28;20023;-82
2022/02/27 13:44:06;;;;;;;12.65;9.25;;;;;;;;;;5138494;28;20020;-82
2022/02/27 13:46:32;;;;;;;12.60;9.05;;;;;;;;;;5137784;28;20308;-82
2022/02/27 13:49:08;;;;;;;13.38;8.65;;;;;;;;;;5131575;28;20043;-81
2022/02/27 13:51:35;;;;;;;11.52;8.95;;;;;;;;;;5115338;28;20436;-82
2022/02/27 13:54:21;;;;;;;14.65;9.52;;;;;;;;;;5099140;28;20024;-82
2022/02/27 13:57:05;;;;;;;17.83;9.80;;;;;;;;;;5117189;28;20028;-82
2022/02/27 13:59:39;;;;;;;19.08;11.30;;;;;;;;;;5098781;28;20063;-82
2022/02/27 14:02:05;;;;;;;17.40;9.48;;;;;;;;;;5113311;28;20027;-83
2022/02/27 14:04:31;;;;;;;13.48;8.40;;;;;;;;;;5119656;28;20019;-81
2022/02/27 14:06:57;;;;;;;12.27;8.35;;;;;;;;;;5121604;28;20038;-81
2022/02/27 14:09:23;;;;;;;12.88;8.38;;;;;;;;;;5137721;28;20031;-82
2022/02/27 14:11:49;;;;;;;13.85;8.82;;;;;;;;;;5137497;28;20023;-84
2022/02/27 14:14:15;;;;;;;30.10;10.38;;;;;;;;;;5137278;28;20031;-82
2022/02/27 14:16:42;;;;;;;16.73;9.13;;;;;;;;;;5137515;28;20019;-83
2022/02/27 14:19:20;;;;;;;15.65;9.15;;;;;;;;;;5137610;28;20026;-83
2022/02/27 14:21:46;;;;;;;12.35;7.88;;;;;;;;;;5137226;28;20035;-82
2022/02/27 14:24:20;;;;;;;12.10;8.35;;;;;;;;;;5119310;28;20026;-82
2022/02/27 14:26:57;;;;;;;13.75;7.72;;;;;;;;;;5137160;27;20023;-82
2022/02/27 14:29:23;;;;;;;13.85;10.27;;;;;;;;;;5122869;27;20030;-83
2022/02/27 14:31:49;;;;;;;10.55;8.00;;;;;;;;;;5123130;27;20027;-82
2022/02/27 14:34:21;;;;;;;13.60;8.50;;;;;;;;;;5123350;27;20038;-82
2022/02/27 14:36:47;;;;;;;11.40;8.18;;;;;;;;;;5141310;27;20031;-82
2022/02/27 14:39:15;;;;;;;13.18;8.63;;;;;;;;;;5141173;27;20027;-85
2022/02/27 14:41:47;;;;;;;13.48;8.10;;;;;;;;;;5141153;27;20019;-82
2022/02/27 14:44:14;;;;;;;12.02;8.57;;;;;;;;;;5141365;27;20023;-82
2022/02/27 14:46:40;;;;;;;11.98;8.65;;;;;;;;;;5122986;27;20026;-82
2022/02/27 14:49:08;;;;;;;19.35;12.55;;;;;;;;;;5141161;27;20015;-82
2022/02/27 14:51:36;;;;;;;130.02;54.95;;;;;;;;;;5140580;27;20126;-82
2022/02/27 14:54:02;;;;;;;48.45;26.88;;;;;;;;;;5122661;27;20042;-82
2022/02/27 14:56:28;;;;;;;48.80;25.83;;;;;;;;;;5141223;27;20015;-84
2022/02/27 14:58:54;;;;;;;37.75;21.75;;;;;;;;;;5122722;27;20038;-82
2022/02/27 15:01:21;;;;;;;37.13;18.50;;;;;;;;;;5122382;27;20079;-82
2022/02/27 15:03:47;;;;;;;14.93;9.32;;;;;;;;;;5139728;27;20027;-82
2022/02/27 15:06:13;;;;;;;14.13;7.65;;;;;;;;;;5140550;27;20058;-82
2022/02/27 15:08:39;;;;;;;12.23;7.82;;;;;;;;;;5140777;27;20209;-83
2022/02/27 15:11:05;;;;;;;11.50;8.05;;;;;;;;;;5140350;27;20058;-82